createdAt,value
2019-02-23T00:01:47.406Z,99.90
2019-02-23T00:04:13.585Z,99.90
2019-02-23T00:06:39.687Z,99.90
2019-02-23T00:09:06.111Z,99.90
2019-02-23T00:11:32.289Z,99.90
2019-02-23T00:13:58.439Z,99.90
2019-02-23T00:16:24.692Z,99.90
2019-02-23T00:18:50.881Z,99.90
2019-02-23T00:21:17.091Z,99.90
2019-02-23T00:23:43.215Z,99.90
2019-02-23T00:26:09.350Z,99.90
2019-02-23T00:28:35.533Z,99.90
2019-02-23T00:31:01.652Z,99.90
2019-02-23T00:33:27.856Z,99.90
2019-02-23T00:35:53.981Z,99.90
2019-02-23T00:38:20.101Z,99.90
2019-02-23T00:40:46.169Z,99.90
2019-02-23T00:43:12.301Z,99.90
2019-02-23T00:45:38.402Z,99.90
2019-02-23T00:48:04.631Z,99.90
2019-02-23T00:50:30.961Z,99.90
2019-02-23T00:52:57.200Z,99.90
2019-02-23T00:55:23.316Z,99.90
2019-02-23T00:57:49.430Z,99.90
2019-02-23T01:00:15.634Z,99.90
2019-02-23T01:02:41.755Z,99.90
2019-02-23T01:05:08.159Z,99.90
2019-02-23T01:07:34.562Z,99.90
2019-02-23T01:10:00.805Z,99.90
2019-02-23T01:12:27.000Z,99.90
2019-02-23T01:14:53.103Z,99.90
2019-02-23T01:17:19.179Z,99.90
2019-02-23T01:19:48.037Z,99.90
2019-02-23T01:22:13.497Z,99.90
2019-02-23T01:24:39.656Z,99.90
2019-02-23T01:27:05.818Z,99.90
2019-02-23T01:29:31.964Z,99.90
2019-02-23T01:31:58.034Z,99.90
2019-02-23T01:34:24.118Z,99.90
2019-02-23T01:36:50.361Z,99.90
2019-02-23T01:39:16.527Z,99.90
2019-02-23T01:41:42.882Z,99.90
2019-02-23T01:44:09.104Z,99.90
2019-02-23T01:46:35.300Z,99.90
2019-02-23T01:49:01.429Z,99.90
2019-02-23T01:51:27.623Z,99.90
2019-02-23T01:53:53.710Z,99.90
2019-02-23T01:56:19.838Z,99.90
2019-02-23T01:58:45.907Z,99.90
2019-02-23T02:01:12.068Z,99.90
2019-02-23T02:03:38.392Z,99.90
2019-02-23T02:06:04.506Z,99.90
2019-02-23T02:08:31.021Z,99.90
2019-02-23T02:10:57.110Z,99.90
2019-02-23T02:13:23.217Z,99.90
2019-02-23T02:15:49.850Z,99.90
2019-02-23T02:18:16.169Z,99.90
2019-02-23T02:20:42.232Z,99.90
2019-02-23T02:23:08.379Z,99.90
2019-02-23T02:25:34.496Z,99.90
2019-02-23T02:28:00.644Z,99.90
2019-02-23T02:30:26.839Z,99.90
2019-02-23T02:32:52.970Z,99.90
2019-02-23T02:35:19.180Z,99.90
2019-02-23T02:37:45.475Z,99.90
2019-02-23T02:40:11.870Z,99.90
2019-02-23T02:42:38.260Z,99.90
2019-02-23T02:45:07.447Z,99.90
2019-02-23T02:47:33.670Z,99.90
2019-02-23T02:49:59.908Z,99.90
2019-02-23T02:52:26.070Z,99.90
2019-02-23T02:54:52.201Z,99.90
2019-02-23T02:57:18.327Z,99.90
2019-02-23T02:59:44.427Z,99.90
2019-02-23T03:02:10.523Z,99.90
2019-02-23T03:04:36.785Z,99.90
2019-02-23T03:07:03.074Z,99.90
2019-02-23T03:09:29.182Z,99.90
2019-02-23T03:11:55.307Z,99.90
2019-02-23T03:14:21.662Z,99.90
2019-02-23T03:16:48.235Z,99.90
2019-02-23T03:19:14.464Z,99.90
2019-02-23T03:21:40.583Z,99.90
2019-02-23T03:24:06.881Z,99.90
2019-02-23T03:26:33.069Z,99.90
2019-02-23T03:28:59.196Z,99.90
2019-02-23T03:31:25.395Z,99.90
2019-02-23T03:33:51.615Z,99.90
2019-02-23T03:36:17.835Z,99.90
2019-02-23T03:38:44.015Z,99.90
2019-02-23T03:41:10.168Z,99.90
2019-02-23T03:43:36.443Z,99.90
2019-02-23T03:46:02.530Z,99.90
2019-02-23T03:48:28.649Z,99.90
2019-02-23T03:50:54.755Z,99.90
2019-02-23T03:53:20.832Z,99.90
2019-02-23T03:55:47.077Z,99.90
2019-02-23T03:58:13.197Z,99.90
2019-02-23T04:00:39.495Z,99.90
2019-02-23T04:03:05.571Z,99.90
2019-02-23T04:05:31.704Z,99.90
2019-02-23T04:07:57.917Z,99.90
2019-02-23T04:10:24.002Z,99.90
2019-02-23T04:12:50.086Z,99.90
2019-02-23T04:15:16.317Z,99.90
2019-02-23T04:17:42.415Z,99.90
2019-02-23T04:20:08.501Z,99.90
2019-02-23T04:22:34.645Z,99.90
2019-02-23T04:25:00.756Z,99.90
2019-02-23T04:27:26.973Z,99.90
2019-02-23T04:29:53.111Z,99.90
2019-02-23T04:32:19.231Z,99.90
2019-02-23T04:34:45.398Z,99.90
2019-02-23T04:37:11.571Z,99.90
2019-02-23T04:39:37.691Z,99.90
2019-02-23T04:42:03.806Z,99.90
2019-02-23T04:44:29.984Z,99.90
2019-02-23T04:46:56.101Z,99.90
2019-02-23T04:49:22.231Z,99.90
2019-02-23T04:51:48.299Z,99.90
2019-02-23T04:54:14.411Z,99.90
2019-02-23T04:56:40.509Z,99.90
2019-02-23T04:59:06.596Z,99.90
2019-02-23T05:01:32.724Z,99.90
2019-02-23T05:03:58.988Z,99.90
2019-02-23T05:06:25.158Z,99.90
2019-02-23T05:08:51.321Z,99.90
2019-02-23T05:11:17.541Z,99.90
2019-02-23T05:13:43.624Z,99.90
2019-02-23T05:16:09.726Z,99.90
2019-02-23T05:18:35.808Z,99.90
2019-02-23T05:21:02.109Z,99.90
2019-02-23T05:23:28.197Z,99.90
2019-02-23T05:25:54.323Z,99.90
2019-02-23T05:28:20.388Z,99.90
2019-02-23T05:30:46.499Z,99.90
2019-02-23T05:33:12.606Z,99.90
2019-02-23T05:35:38.705Z,99.90
2019-02-23T05:38:04.794Z,99.90
2019-02-23T05:40:30.899Z,99.90
2019-02-23T05:43:01.056Z,99.90
2019-02-23T05:45:25.037Z,99.90
2019-02-23T05:47:51.242Z,99.90
2019-02-23T05:50:17.351Z,99.90
2019-02-23T05:52:43.485Z,99.90
2019-02-23T05:55:09.692Z,99.90
2019-02-23T05:57:35.793Z,99.90
2019-02-23T06:00:03.127Z,99.90
2019-02-23T06:02:29.238Z,99.90
2019-02-23T06:04:55.510Z,99.90
2019-02-23T06:07:21.699Z,99.90
2019-02-23T06:09:47.866Z,99.90
2019-02-23T06:12:13.984Z,99.90
2019-02-23T06:14:40.113Z,99.90
2019-02-23T06:17:06.298Z,99.90
2019-02-23T06:19:32.374Z,99.90
2019-02-23T06:21:58.522Z,99.90
2019-02-23T06:24:24.656Z,99.90
2019-02-23T06:26:50.947Z,99.90
2019-02-23T06:29:17.034Z,99.90
2019-02-23T06:31:43.404Z,99.90
2019-02-23T06:34:16.181Z,99.90
2019-02-23T06:36:38.175Z,99.90
2019-02-23T06:39:04.385Z,99.90
2019-02-23T06:41:30.466Z,99.90
2019-02-23T06:43:56.598Z,99.90
2019-02-23T06:46:22.668Z,99.90
2019-02-23T06:48:48.843Z,99.90
2019-02-23T06:51:14.995Z,99.90
2019-02-23T06:53:41.135Z,99.90
2019-02-23T06:56:07.395Z,99.90
2019-02-23T06:58:33.469Z,99.90
2019-02-23T07:00:59.644Z,99.90
2019-02-23T07:03:25.790Z,99.90
2019-02-23T07:05:51.927Z,99.90
2019-02-23T07:08:18.131Z,99.90
2019-02-23T07:10:44.329Z,99.90
2019-02-23T07:13:10.438Z,99.90
2019-02-23T07:15:36.670Z,99.90
2019-02-23T07:18:02.761Z,99.90
2019-02-23T07:20:28.887Z,99.90
2019-02-23T07:22:54.942Z,99.90
2019-02-23T07:25:21.055Z,99.90
2019-02-23T07:27:47.187Z,99.90
2019-02-23T07:30:13.475Z,99.90
2019-02-23T07:32:39.581Z,99.90
2019-02-23T07:35:06.571Z,99.90
2019-02-23T07:37:32.690Z,99.90
2019-02-23T07:39:58.812Z,99.90
2019-02-23T07:42:25.012Z,99.90
2019-02-23T07:44:51.152Z,99.90
2019-02-23T07:47:17.405Z,99.90
2019-02-23T07:49:43.623Z,99.90
2019-02-23T07:52:09.821Z,99.90
2019-02-23T07:54:35.893Z,99.90
2019-02-23T07:57:02.050Z,99.90
2019-02-23T07:59:48.022Z,99.90
2019-02-23T08:02:14.507Z,99.90
2019-02-23T08:04:40.671Z,99.90
2019-02-23T08:07:06.929Z,99.90
2019-02-23T08:09:33.099Z,99.90
2019-02-23T08:11:59.243Z,99.90
2019-02-23T08:14:25.332Z,99.90
2019-02-23T08:16:51.463Z,99.90
2019-02-23T08:19:17.653Z,99.90
2019-02-23T08:21:43.771Z,99.90
2019-02-23T08:24:09.971Z,99.90
2019-02-23T08:26:36.091Z,99.90
2019-02-23T08:29:02.361Z,99.90
2019-02-23T08:31:28.554Z,99.90
2019-02-23T08:33:54.763Z,99.90
2019-02-23T08:36:20.860Z,99.90
2019-02-23T08:38:47.068Z,99.90
2019-02-23T08:41:13.502Z,99.90
2019-02-23T08:43:39.763Z,99.90
2019-02-23T08:46:05.885Z,99.90
2019-02-23T08:48:33.440Z,99.90
2019-02-23T08:50:59.869Z,99.90
2019-02-23T08:53:25.941Z,99.90
2019-02-23T08:55:52.085Z,99.90
2019-02-23T08:58:18.215Z,99.90
2019-02-23T09:00:44.391Z,99.90
2019-02-23T09:03:10.484Z,99.90
2019-02-23T09:05:36.628Z,99.90
2019-02-23T09:08:02.800Z,99.90
2019-02-23T09:10:28.929Z,99.90
2019-02-23T09:12:55.037Z,99.90
2019-02-23T09:15:22.303Z,99.90
2019-02-23T09:17:48.643Z,99.90
2019-02-23T09:20:14.763Z,99.90
2019-02-23T09:22:40.874Z,99.90
2019-02-23T09:25:09.467Z,99.90
2019-02-23T09:27:35.734Z,99.90
2019-02-23T09:30:02.437Z,99.90
2019-02-23T09:32:28.652Z,99.90
2019-02-23T09:34:54.781Z,99.90
2019-02-23T09:37:20.984Z,99.90
2019-02-23T09:39:47.133Z,99.90
2019-02-23T09:42:13.462Z,99.90
2019-02-23T09:44:39.556Z,99.90
2019-02-23T09:47:05.772Z,99.90
2019-02-23T09:49:31.977Z,99.90
2019-02-23T09:51:58.076Z,99.90
2019-02-23T09:54:24.257Z,99.90
2019-02-23T09:56:50.490Z,99.90
2019-02-23T09:59:16.620Z,99.90
2019-02-23T10:01:42.735Z,99.90
2019-02-23T10:04:08.941Z,99.90
2019-02-23T10:06:35.434Z,99.90
2019-02-23T10:09:01.666Z,99.90
2019-02-23T10:11:27.761Z,99.90
2019-02-23T10:13:53.972Z,99.90
2019-02-23T10:16:20.067Z,99.90
2019-02-23T10:18:46.191Z,99.90
2019-02-23T10:21:12.273Z,99.90
2019-02-23T10:23:38.500Z,99.90
2019-02-23T10:26:04.718Z,99.90
2019-02-23T10:28:30.808Z,99.90
2019-02-23T10:30:56.885Z,99.90
2019-02-23T10:33:22.986Z,99.90
2019-02-23T10:35:49.055Z,99.90
2019-02-23T10:38:15.172Z,99.90
2019-02-23T10:40:41.367Z,99.90
2019-02-23T10:43:07.498Z,99.90
2019-02-23T10:45:33.590Z,99.90
2019-02-23T10:47:59.825Z,99.90
2019-02-23T10:50:25.921Z,99.90
2019-02-23T10:52:51.996Z,99.90
2019-02-23T10:55:18.121Z,99.90
2019-02-23T10:57:44.300Z,99.90
2019-02-23T11:00:21.053Z,99.90
2019-02-23T11:02:47.253Z,99.90
2019-02-23T11:05:13.692Z,99.90
2019-02-23T11:07:39.974Z,99.90
2019-02-23T11:10:07.470Z,99.90
2019-02-23T11:12:33.595Z,99.90
2019-02-23T11:14:59.849Z,99.90
2019-02-23T11:17:26.000Z,98.40
2019-02-23T11:19:52.122Z,99.30
2019-02-23T11:22:18.222Z,98.20
2019-02-23T11:24:44.435Z,96.60
2019-02-23T11:27:10.815Z,97.00
2019-02-23T11:29:36.905Z,95.20
2019-02-23T11:32:03.028Z,95.10
2019-02-23T11:34:29.224Z,92.80
2019-02-23T11:36:55.314Z,93.20
2019-02-23T11:39:21.429Z,94.60
2019-02-23T11:41:47.608Z,94.60
2019-02-23T11:44:13.746Z,92.70
2019-02-23T11:46:39.902Z,91.60
2019-02-23T11:49:08.247Z,91.60
2019-02-23T11:51:34.275Z,89.90
2019-02-23T11:54:00.339Z,90.20
2019-02-23T11:56:26.628Z,90.30
2019-02-23T11:58:52.760Z,86.70
2019-02-23T12:01:18.998Z,86.00
2019-02-23T12:03:45.085Z,85.30
2019-02-23T12:06:11.210Z,84.40
2019-02-23T12:08:37.414Z,81.10
2019-02-23T12:11:03.512Z,83.90
2019-02-23T12:13:29.643Z,82.30
2019-02-23T12:15:55.765Z,84.60
2019-02-23T12:18:21.871Z,84.20
2019-02-23T12:20:47.969Z,82.40
2019-02-23T12:23:14.226Z,80.10
2019-02-23T12:25:40.444Z,81.00
2019-02-23T12:28:06.596Z,77.80
2019-02-23T12:30:32.907Z,81.30
2019-02-23T12:32:59.135Z,79.80
2019-02-23T12:35:25.365Z,82.80
2019-02-23T12:37:51.724Z,81.90
2019-02-23T12:40:17.942Z,79.70
2019-02-23T12:42:44.021Z,77.10
2019-02-23T12:45:11.775Z,73.00
2019-02-23T12:47:37.892Z,74.90
2019-02-23T12:50:07.630Z,76.90
2019-02-23T12:52:33.826Z,71.90
2019-02-23T12:54:59.984Z,75.20
2019-02-23T12:57:26.156Z,73.80
2019-02-23T12:59:52.270Z,73.50
2019-02-23T13:02:18.525Z,76.00
2019-02-23T13:04:44.756Z,73.60
2019-02-23T13:07:10.977Z,72.00
2019-02-23T13:09:38.417Z,75.60
2019-02-23T13:12:11.014Z,69.80
2019-02-23T13:14:43.891Z,74.00
2019-02-23T13:17:19.711Z,72.70
2019-02-23T13:20:16.839Z,72.80
2019-02-23T13:22:58.911Z,72.00
2019-02-23T13:25:34.906Z,71.90
2019-02-23T13:28:11.017Z,70.00
2019-02-23T13:30:50.047Z,71.20
2019-02-23T13:33:35.196Z,72.20
2019-02-23T13:36:25.124Z,70.80
2019-02-23T13:39:13.624Z,67.20
2019-02-23T13:41:58.661Z,68.20
2019-02-23T13:44:43.074Z,69.80
2019-02-23T13:47:25.364Z,69.00
2019-02-23T13:50:18.883Z,69.30
2019-02-23T13:52:51.008Z,70.30
2019-02-23T13:55:23.893Z,68.30
2019-02-23T13:57:56.815Z,68.40
2019-02-23T14:00:38.689Z,68.60
2019-02-23T14:03:36.545Z,67.50
2019-02-23T14:06:05.969Z,67.20
2019-02-23T14:08:53.615Z,66.70
2019-02-23T14:11:38.933Z,69.00
2019-02-23T14:14:11.695Z,64.50
2019-02-23T14:16:53.882Z,66.10
2019-02-23T14:19:42.137Z,64.80
2019-02-23T14:22:14.772Z,66.60
2019-02-23T14:24:56.822Z,66.50
2019-02-23T14:27:32.986Z,66.20
2019-02-23T14:30:08.630Z,66.70
2019-02-23T14:32:38.528Z,67.70
2019-02-23T14:35:29.163Z,65.50
2019-02-23T14:38:04.952Z,64.90
2019-02-23T14:40:40.955Z,63.40
2019-02-23T14:43:25.961Z,65.80
2019-02-23T14:46:25.117Z,63.30
2019-02-23T14:49:06.891Z,62.50
2019-02-23T14:52:08.840Z,62.20
2019-02-23T14:55:00.928Z,65.10
2019-02-23T14:57:31.940Z,63.50
2019-02-23T15:00:10.492Z,64.90
2019-02-23T15:02:58.715Z,63.30
2019-02-23T15:05:28.699Z,63.90
2019-02-23T15:08:22.952Z,64.40
2019-02-23T15:11:02.195Z,62.50
2019-02-23T15:13:57.688Z,62.90
2019-02-23T15:16:42.924Z,63.50
2019-02-23T15:19:35.817Z,63.20
2019-02-23T15:22:25.518Z,64.70
2019-02-23T15:25:30.382Z,64.80
2019-02-23T15:28:09.262Z,65.50
2019-02-23T15:30:41.964Z,68.40
2019-02-23T15:33:30.342Z,70.00
2019-02-23T15:36:00.327Z,70.10
2019-02-23T15:38:30.268Z,68.70
2019-02-23T15:41:00.181Z,70.50
2019-02-23T15:43:38.834Z,70.10
2019-02-23T15:46:11.777Z,68.90
2019-02-23T15:48:50.849Z,69.40
2019-02-23T15:51:17.020Z,70.00
2019-02-23T15:53:43.158Z,72.20
2019-02-23T15:56:09.458Z,70.90
2019-02-23T15:58:35.713Z,73.40
2019-02-23T16:01:01.928Z,73.30
2019-02-23T16:03:28.020Z,72.70
2019-02-23T16:05:54.146Z,73.90
2019-02-23T16:08:20.228Z,72.80
2019-02-23T16:10:46.360Z,74.20
2019-02-23T16:13:12.509Z,74.90
2019-02-23T16:15:38.671Z,75.90
2019-02-23T16:18:04.984Z,75.30
2019-02-23T16:20:31.367Z,75.90
2019-02-23T16:22:57.509Z,75.50
2019-02-23T16:25:23.679Z,75.80
2019-02-23T16:27:49.802Z,76.40
2019-02-23T16:30:15.914Z,75.20
2019-02-23T16:32:42.010Z,78.40
2019-02-23T16:35:08.145Z,77.00
2019-02-23T16:37:34.263Z,73.50
2019-02-23T16:40:00.451Z,75.10
2019-02-23T16:42:26.568Z,74.00
2019-02-23T16:44:52.746Z,74.90
2019-02-23T16:47:19.191Z,74.70
2019-02-23T16:49:45.333Z,75.40
2019-02-23T16:52:11.516Z,76.10
2019-02-23T16:54:37.721Z,76.10
2019-02-23T16:57:03.885Z,75.90
2019-02-23T16:59:30.139Z,76.50
2019-02-23T17:01:56.358Z,78.70
2019-02-23T17:04:22.601Z,77.10
2019-02-23T17:06:48.718Z,78.30
2019-02-23T17:09:14.844Z,78.00
2019-02-23T17:11:40.957Z,79.50
2019-02-23T17:14:07.023Z,80.10
2019-02-23T17:16:33.125Z,80.80
2019-02-23T17:18:59.211Z,81.40
2019-02-23T17:21:25.445Z,82.50
2019-02-23T17:23:51.521Z,81.60
2019-02-23T17:26:17.737Z,83.00
2019-02-23T17:28:43.891Z,82.20
2019-02-23T17:31:10.105Z,81.50
2019-02-23T17:33:36.334Z,82.40
2019-02-23T17:36:02.399Z,82.40
2019-02-23T17:38:28.571Z,82.60
2019-02-23T17:40:54.768Z,83.10
2019-02-23T17:43:20.865Z,82.80
2019-02-23T17:45:47.005Z,84.50
2019-02-23T17:48:13.125Z,85.90
2019-02-23T17:50:39.309Z,88.00
2019-02-23T17:53:05.451Z,87.20
2019-02-23T17:55:31.591Z,87.50
2019-02-23T17:57:57.732Z,87.10
2019-02-23T18:00:25.044Z,89.90
2019-02-23T18:02:51.352Z,88.30
2019-02-23T18:05:17.589Z,86.80
2019-02-23T18:07:43.975Z,89.00
2019-02-23T18:10:10.218Z,86.90
2019-02-23T18:12:36.472Z,87.30
2019-02-23T18:15:05.595Z,90.90
2019-02-23T18:17:31.660Z,91.00
2019-02-23T18:19:57.759Z,91.10
2019-02-23T18:22:23.837Z,90.40
2019-02-23T18:24:49.996Z,90.80
2019-02-23T18:27:17.059Z,91.40
2019-02-23T18:29:43.137Z,91.80
2019-02-23T18:32:09.227Z,92.20
2019-02-23T18:34:35.687Z,91.30
2019-02-23T18:37:01.822Z,91.30
2019-02-23T18:39:28.021Z,91.50
2019-02-23T18:41:54.191Z,91.80
2019-02-23T18:44:20.377Z,91.60
2019-02-23T18:46:46.474Z,91.80
2019-02-23T18:49:12.582Z,93.30
2019-02-23T18:51:38.666Z,92.80
2019-02-23T18:54:04.810Z,95.10
2019-02-23T18:56:30.997Z,94.20
2019-02-23T18:58:57.134Z,94.20
2019-02-23T19:01:23.386Z,94.70
2019-02-23T19:03:49.568Z,94.40
2019-02-23T19:06:15.667Z,93.70
2019-02-23T19:08:41.806Z,94.20
2019-02-23T19:11:08.483Z,95.20
2019-02-23T19:13:34.632Z,96.10
2019-02-23T19:16:00.852Z,96.90
2019-02-23T19:18:26.929Z,97.30
2019-02-23T19:20:53.004Z,97.50
2019-02-23T19:23:19.131Z,97.20
2019-02-23T19:25:45.362Z,97.20
2019-02-23T19:28:11.532Z,97.60
2019-02-23T19:30:37.687Z,97.40
2019-02-23T19:33:03.918Z,97.00
2019-02-23T19:35:30.130Z,96.60
2019-02-23T19:37:56.364Z,97.10
2019-02-23T19:40:22.661Z,97.40
2019-02-23T19:42:48.942Z,97.80
2019-02-23T19:45:15.400Z,99.10
2019-02-23T19:47:41.547Z,99.40
2019-02-23T19:50:11.224Z,98.00
2019-02-23T19:52:37.511Z,97.10
2019-02-23T19:55:07.141Z,97.10
2019-02-23T19:57:33.887Z,98.10
2019-02-23T20:00:00.289Z,98.20
2019-02-23T20:02:26.478Z,97.10
2019-02-23T20:04:52.943Z,96.80
2019-02-23T20:07:19.359Z,98.20
2019-02-23T20:09:45.635Z,97.00
2019-02-23T20:12:12.724Z,98.20
2019-02-23T20:14:39.112Z,98.30
2019-02-23T20:17:05.693Z,97.10
2019-02-23T20:19:31.953Z,96.80
2019-02-23T20:21:58.181Z,96.40
2019-02-23T20:24:24.304Z,95.40
2019-02-23T20:26:55.692Z,94.60
2019-02-23T20:29:18.646Z,94.90
2019-02-23T20:31:44.781Z,96.20
2019-02-23T20:34:10.982Z,98.60
2019-02-23T20:36:37.125Z,99.90
2019-02-23T20:39:03.583Z,99.90
2019-02-23T20:41:29.766Z,99.90
2019-02-23T20:43:56.202Z,99.90
2019-02-23T20:46:22.410Z,99.90
2019-02-23T20:48:48.665Z,99.90
2019-02-23T20:51:14.897Z,99.90
2019-02-23T20:53:41.125Z,99.90
2019-02-23T20:56:07.343Z,99.90
2019-02-23T20:58:33.587Z,99.90
2019-02-23T21:00:59.681Z,99.90
2019-02-23T21:03:25.817Z,99.90
2019-02-23T21:05:52.354Z,99.90
2019-02-23T21:08:18.627Z,99.90
2019-02-23T21:10:44.872Z,99.90
2019-02-23T21:13:11.009Z,99.90
2019-02-23T21:15:37.253Z,99.90
2019-02-23T21:18:03.488Z,99.90
2019-02-23T21:20:29.685Z,99.90
2019-02-23T21:22:55.808Z,99.90
2019-02-23T21:25:22.176Z,99.90
2019-02-23T21:27:48.446Z,99.90
2019-02-23T21:30:14.781Z,99.90
2019-02-23T21:32:41.005Z,99.90
2019-02-23T21:35:07.432Z,99.90
2019-02-23T21:37:33.621Z,99.90
2019-02-23T21:39:59.723Z,99.90
2019-02-23T21:42:25.823Z,99.90
2019-02-23T21:44:51.950Z,99.90
2019-02-23T21:47:18.159Z,99.90
2019-02-23T21:49:44.281Z,99.90
2019-02-23T21:52:10.539Z,99.90
2019-02-23T21:54:36.832Z,99.90
2019-02-23T21:57:03.028Z,99.90
2019-02-23T21:59:29.275Z,99.90
2019-02-23T22:01:55.480Z,99.90
2019-02-23T22:04:21.732Z,99.90
2019-02-23T22:06:47.898Z,99.90
2019-02-23T22:09:14.005Z,99.90
2019-02-23T22:11:40.342Z,99.90
2019-02-23T22:14:06.549Z,99.90
2019-02-23T22:16:32.684Z,99.90
2019-02-23T22:18:58.917Z,99.90
2019-02-23T22:21:25.000Z,99.90
2019-02-23T22:23:51.147Z,99.90
2019-02-23T22:26:17.324Z,99.90
2019-02-23T22:28:43.438Z,99.90
2019-02-23T22:31:09.891Z,99.90
2019-02-23T22:33:36.081Z,99.90
2019-02-23T22:36:02.429Z,99.90
2019-02-23T22:38:28.655Z,99.90
2019-02-23T22:40:55.366Z,99.90
2019-02-23T22:43:21.576Z,99.90
2019-02-23T22:45:47.711Z,99.90
2019-02-23T22:48:13.904Z,99.90
2019-02-23T22:50:40.014Z,99.90
2019-02-23T22:53:06.271Z,99.90
2019-02-23T22:55:32.390Z,99.90
2019-02-23T22:57:58.542Z,99.90
2019-02-23T23:00:26.507Z,99.90
2019-02-23T23:02:52.866Z,99.90
2019-02-23T23:05:19.001Z,99.90
2019-02-23T23:07:45.303Z,99.90
2019-02-23T23:10:11.518Z,99.90
2019-02-23T23:12:37.758Z,99.90
2019-02-23T23:15:06.119Z,99.90
2019-02-23T23:17:32.216Z,99.90
2019-02-23T23:19:58.346Z,99.90
2019-02-23T23:22:24.553Z,99.90
2019-02-23T23:24:50.699Z,99.90
2019-02-23T23:27:16.940Z,99.90
2019-02-23T23:29:43.052Z,99.90
2019-02-23T23:32:09.142Z,99.90
2019-02-23T23:34:35.236Z,99.90
2019-02-23T23:37:01.404Z,99.90
2019-02-23T23:39:27.505Z,99.90
2019-02-23T23:41:57.034Z,99.90
2019-02-23T23:44:23.147Z,99.90
2019-02-23T23:46:49.226Z,99.90
2019-02-23T23:49:15.372Z,99.90
2019-02-23T23:51:41.496Z,99.90
2019-02-23T23:54:07.625Z,99.90
2019-02-23T23:56:33.749Z,99.90
2019-02-23T23:59:00.623Z,99.90
